Time;durP1;ratioP1;P1;durP2;ratioP2;P2;SDS_P1;SDS_P2;PMS_P1;PMS_P2;Temp;Humidity;BMP_temperature;BMP_pressure;BME280_temperature;BME280_humidity;BME280_pressure;Samples;Min_cycle;Max_cycle;Signal;HPM_P1;HPM_P2
2021/09/01 00:00:13;;;;;;;;;;;;;;;;;;5135600;27;19923;-85
2021/09/01 00:02:39;;;;;;;;;;;;;;;;;;5135789;27;19924;-85
2021/09/01 00:05:05;;;;;;;;;;;;;;;;;;5135580;27;19945;-84
2021/09/01 00:07:31;;;;;;;;;;;;;;;;;;5135690;27;19927;-85
2021/09/01 00:09:58;;;;;;;;;;;;;;;;;;5136157;27;19923;-85
2021/09/01 00:12:24;;;;;;;;;;;;;;;;;;5135653;27;19932;-85
2021/09/01 00:14:50;;;;;;;;;;;;;;;;;;5135143;27;19931;-85
2021/09/01 00:17:17;;;;;;;;;;;;;;;;;;5135461;27;19924;-85
2021/09/01 00:19:43;;;;;;;;;;;;;;;;;;5135733;27;19923;-85
2021/09/01 00:22:09;;;;;;;;;;;;;;;;;;5135401;27;19932;-85
2021/09/01 00:24:36;;;;;;;;;;;;;;;;;;5137001;27;19923;-87
2021/09/01 00:27:02;;;;;;;;;;;;;;;;;;5134941;27;20394;-84
2021/09/01 00:29:29;;;;;;;;;;;;;;;;;;5134988;27;19934;-84
2021/09/01 00:31:55;;;;;;;;;;;;;;;;;;5135071;27;20370;-84
2021/09/01 00:34:21;;;;;;;;;;;;;;;;;;5134920;27;19933;-83
2021/09/01 00:36:48;;;;;;;;;;;;;;;;;;5135083;27;19931;-82
2021/09/01 00:39:14;;;;;;;;;;;;;;;;;;5134903;27;20316;-82
2021/09/01 00:41:40;;;;;;;;;;;;;;;;;;5134936;27;19930;-82
2021/09/01 00:44:06;;;;;;;;;;;;;;;;;;5134797;27;19924;-82
2021/09/01 00:46:33;;;;;;;;;;;;;;;;;;5134649;27;19930;-82
2021/09/01 00:48:59;;;;;;;;;;;;;;;;;;5134513;27;19923;-82
2021/09/01 00:51:25;;;;;;;;;;;;;;;;;;5134898;27;19924;-82
2021/09/01 00:53:52;;;;;;;;;;;;;;;;;;5134152;27;20407;-83
2021/09/01 00:56:18;;;;;;;;;;;;;;;;;;5134780;27;19924;-81
2021/09/01 00:58:44;;;;;;;;;;;;;;;;;;5134762;27;19931;-83
2021/09/01 01:01:16;;;;;;;;;;;;;;;;;;5134704;27;19924;-81
2021/09/01 01:03:43;;;;;;;;;;;;;;;;;;5134849;27;19930;-82
2021/09/01 01:06:09;;;;;;;;;;;;;;;;;;5134295;27;19976;-82
2021/09/01 01:08:36;;;;;;;;;;;;;;;;;;5134952;27;19923;-81
2021/09/01 01:11:02;;;;;;;;;;;;;;;;;;5134617;27;19934;-81
2021/09/01 01:13:28;;;;;;;;;;;;;;;;;;5134667;27;20393;-82
2021/09/01 01:15:55;;;;;;;;;;;;;;;;;;5134471;27;19930;-84
2021/09/01 01:18:21;;;;;;;;;;;;;;;;;;5134788;27;19923;-87
2021/09/01 01:20:47;;;;;;;;;;;;;;;;;;5134823;27;19934;-87
2021/09/01 01:23:14;;;;;;;;;;;;;;;;;;5134579;27;20288;-87
2021/09/01 01:25:40;;;;;;;;;;;;;;;;;;5134664;27;19924;-86
2021/09/01 01:28:06;;;;;;;;;;;;;;;;;;5134624;27;19924;-87
2021/09/01 01:30:32;;;;;;;;;;;;;;;;;;5134294;27;19934;-87
2021/09/01 01:32:59;;;;;;;;;;;;;;;;;;5133958;27;20381;-87
2021/09/01 01:35:25;;;;;;;;;;;;;;;;;;5134490;27;19930;-88
2021/09/01 01:37:51;;;;;;;;;;;;;;;;;;5134105;27;19923;-84
2021/09/01 01:40:18;;;;;;;;;;;;;;;;;;5133977;27;19930;-86
2021/09/01 01:42:44;;;;;;;;;;;;;;;;;;5133914;27;19930;-80
2021/09/01 01:45:10;;;;;;;;;;;;;;;;;;5133967;27;20397;-83
2021/09/01 01:47:37;;;;;;;;;;;;;;;;;;5134444;27;19930;-82
2021/09/01 01:50:03;;;;;;;;;;;;;;;;;;5133943;27;19982;-78
2021/09/01 01:52:29;;;;;;;;;;;;;;;;;;5133924;27;19924;-81
2021/09/01 01:54:55;;;;;;;;;;;;;;;;;;5133762;28;19928;-81
2021/09/01 01:57:22;;;;;;;;;;;;;;;;;;5133673;28;20274;-84
2021/09/01 01:59:49;;;;;;;;;;;;;;;;;;5133469;28;19930;-76
2021/09/01 02:02:15;;;;;;;;;;;;;;;;;;5133687;28;19930;-75
2021/09/01 02:04:41;;;;;;;;;;;;;;;;;;5133439;28;20305;-74
2021/09/01 02:07:08;;;;;;;;;;;;;;;;;;5135797;27;20708;-77
2021/09/01 02:09:34;;;;;;;;;;;;;;;;;;5137687;27;19924;-76
2021/09/01 02:12:00;;;;;;;;;;;;;;;;;;5137595;27;19931;-77
2021/09/01 02:14:26;;;;;;;;;;;;;;;;;;5137657;27;19930;-77
2021/09/01 02:16:53;;;;;;;;;;;;;;;;;;5137298;27;19927;-77
2021/09/01 02:19:19;;;;;;;;;;;;;;;;;;5137781;27;19946;-77
2021/09/01 02:21:45;;;;;;;;;;;;;;;;;;5137296;27;19930;-79
2021/09/01 02:24:12;;;;;;;;;;;;;;;;;;5137427;27;19924;-76
2021/09/01 02:26:38;;;;;;;;;;;;;;;;;;5137274;27;20266;-75
2021/09/01 02:29:04;;;;;;;;;;;;;;;;;;5137064;27;19923;-75
2021/09/01 02:31:30;;;;;;;;;;;;;;;;;;5137685;27;19923;-75
2021/09/01 02:33:57;;;;;;;;;;;;;;;;;;5137221;27;20293;-76
2021/09/01 02:36:23;;;;;;;;;;;;;;;;;;5137156;27;19935;-76
2021/09/01 02:38:49;;;;;;;;;;;;;;;;;;5137009;27;20016;-75
2021/09/01 02:41:16;;;;;;;;;;;;;;;;;;5137399;27;19923;-76
2021/09/01 02:43:42;;;;;;;;;;;;;;;;;;5136925;27;19924;-76
2021/09/01 02:46:08;;;;;;;;;;;;;;;;;;5136973;27;19927;-76
2021/09/01 02:48:35;;;;;;;;;;;;;;;;;;5137428;27;19923;-74
2021/09/01 02:51:01;;;;;;;;;;;;;;;;;;5136925;27;19927;-76
2021/09/01 02:53:27;;;;;;;;;;;;;;;;;;5137080;27;19923;-76
2021/09/01 02:55:53;;;;;;;;;;;;;;;;;;5137101;27;19927;-75
2021/09/01 02:58:20;;;;;;;;;;;;;;;;;;5136773;27;19924;-76
2021/09/01 03:00:46;;;;;;;;;;;;;;;;;;5137022;27;19923;-75
2021/09/01 03:03:12;;;;;;;;;;;;;;;;;;5136795;27;19924;-76
2021/09/01 03:05:39;;;;;;;;;;;;;;;;;;5136426;27;19924;-76
2021/09/01 03:08:05;;;;;;;;;;;;;;;;;;5136694;27;19931;-76
2021/09/01 03:10:32;;;;;;;;;;;;;;;;;;5136555;27;19970;-76
2021/09/01 03:12:58;;;;;;;;;;;;;;;;;;5136513;27;19924;-75
2021/09/01 03:15:24;;;;;;;;;;;;;;;;;;5136336;27;20405;-76
2021/09/01 03:17:51;;;;;;;;;;;;;;;;;;5135951;27;19923;-76
2021/09/01 03:20:17;;;;;;;;;;;;;;;;;;5136599;27;19929;-76
2021/09/01 03:22:43;;;;;;;;;;;;;;;;;;5136349;27;20312;-76
2021/09/01 03:25:10;;;;;;;;;;;;;;;;;;5136044;27;19935;-74
2021/09/01 03:27:38;;;;;;;;;;;;;;;;;;5135888;27;20201;-74
2021/09/01 03:30:04;;;;;;;;;;;;;;;;;;5136158;27;20389;-75
2021/09/01 03:32:30;;;;;;;;;;;;;;;;;;5136490;27;19923;-75
2021/09/01 03:34:57;;;;;;;;;;;;;;;;;;5136068;27;19930;-75
2021/09/01 03:37:23;;;;;;;;;;;;;;;;;;5136160;27;19923;-75
2021/09/01 03:39:50;;;;;;;;;;;;;;;;;;5135918;27;19923;-75
2021/09/01 03:42:16;;;;;;;;;;;;;;;;;;5137439;27;20391;-74
2021/09/01 03:44:42;;;;;;;;;;;;;;;;;;5135861;27;19930;-75
2021/09/01 03:47:08;;;;;;;;;;;;;;;;;;5135783;27;19923;-75
2021/09/01 03:49:35;;;;;;;;;;;;;;;;;;5135800;27;19924;-75
2021/09/01 03:52:01;;;;;;;;;;;;;;;;;;5135356;27;19927;-75
2021/09/01 03:54:27;;;;;;;;;;;;;;;;;;5136021;27;19924;-74
2021/09/01 03:56:54;;;;;;;;;;;;;;;;;;5135352;27;20411;-74
2021/09/01 03:59:20;;;;;;;;;;;;;;;;;;5135521;27;19923;-74
2021/09/01 04:01:46;;;;;;;;;;;;;;;;;;5135749;27;19923;-74
2021/09/01 04:04:13;;;;;;;;;;;;;;;;;;5135202;27;20506;-75
2021/09/01 04:06:39;;;;;;;;;;;;;;;;;;5135379;27;19937;-75
2021/09/01 04:09:05;;;;;;;;;;;;;;;;;;5135320;27;19923;-76
2021/09/01 04:11:31;;;;;;;;;;;;;;;;;;5135476;27;20285;-76
2021/09/01 04:13:58;;;;;;;;;;;;;;;;;;5134901;27;19923;-76
2021/09/01 04:16:24;;;;;;;;;;;;;;;;;;5135437;27;19935;-76
2021/09/01 04:18:50;;;;;;;;;;;;;;;;;;5134831;27;19939;-76
2021/09/01 04:21:17;;;;;;;;;;;;;;;;;;5135183;27;19923;-76
2021/09/01 04:23:43;;;;;;;;;;;;;;;;;;5137268;27;19945;-76
2021/09/01 04:26:09;;;;;;;;;;;;;;;;;;5134777;27;19927;-76
2021/09/01 04:28:36;;;;;;;;;;;;;;;;;;5134680;27;19931;-76
2021/09/01 04:31:02;;;;;;;;;;;;;;;;;;5135081;27;19945;-76
2021/09/01 04:33:28;;;;;;;;;;;;;;;;;;5134784;27;19930;-76
2021/09/01 04:35:54;;;;;;;;;;;;;;;;;;5134845;27;19938;-76
2021/09/01 04:38:21;;;;;;;;;;;;;;;;;;5135001;27;19930;-77
2021/09/01 04:40:47;;;;;;;;;;;;;;;;;;5134620;27;20403;-77
2021/09/01 04:43:13;;;;;;;;;;;;;;;;;;5135821;27;19923;-77
2021/09/01 04:45:40;;;;;;;;;;;;;;;;;;5134848;27;19923;-78
2021/09/01 04:48:06;;;;;;;;;;;;;;;;;;5134871;27;19931;-77
2021/09/01 04:50:32;;;;;;;;;;;;;;;;;;5134589;27;20293;-76
2021/09/01 04:52:59;;;;;;;;;;;;;;;;;;5134047;27;19924;-76
2021/09/01 04:55:25;;;;;;;;;;;;;;;;;;5134682;27;19927;-76
2021/09/01 04:57:51;;;;;;;;;;;;;;;;;;5134307;27;19923;-76
2021/09/01 05:00:17;;;;;;;;;;;;;;;;;;5134570;27;19923;-76
2021/09/01 05:02:44;;;;;;;;;;;;;;;;;;5134201;27;19923;-76
2021/09/01 05:05:10;;;;;;;;;;;;;;;;;;5134259;27;19928;-76
2021/09/01 05:07:36;;;;;;;;;;;;;;;;;;5134529;27;19946;-76
2021/09/01 05:10:03;;;;;;;;;;;;;;;;;;5133946;27;19931;-76
2021/09/01 05:12:29;;;;;;;;;;;;;;;;;;5134269;27;19931;-76
2021/09/01 05:14:55;;;;;;;;;;;;;;;;;;5134053;27;19954;-76
2021/09/01 05:17:22;;;;;;;;;;;;;;;;;;5134044;27;19930;-76
2021/09/01 05:19:48;;;;;;;;;;;;;;;;;;5133871;27;19930;-76
2021/09/01 05:22:14;;;;;;;;;;;;;;;;;;5134088;27;19923;-76
2021/09/01 05:24:41;;;;;;;;;;;;;;;;;;5134323;27;19930;-76
2021/09/01 05:27:07;;;;;;;;;;;;;;;;;;5133543;27;19972;-76
2021/09/01 05:29:33;;;;;;;;;;;;;;;;;;5134465;27;19923;-76
2021/09/01 05:32:00;;;;;;;;;;;;;;;;;;5134934;27;20369;-76
2021/09/01 05:34:26;;;;;;;;;;;;;;;;;;5134739;27;19942;-76
2021/09/01 05:36:52;;;;;;;;;;;;;;;;;;5133784;27;19930;-76
2021/09/01 05:39:19;;;;;;;;;;;;;;;;;;5133645;27;19923;-76
2021/09/01 05:41:45;;;;;;;;;;;;;;;;;;5133076;27;19930;-76
2021/09/01 05:44:11;;;;;;;;;;;;;;;;;;5133594;27;19924;-76
2021/09/01 05:46:37;;;;;;;;;;;;;;;;;;5133576;27;20370;-76
2021/09/01 05:49:04;;;;;;;;;;;;;;;;;;5133672;27;19930;-76
2021/09/01 05:51:30;;;;;;;;;;;;;;;;;;5133844;27;19924;-76
2021/09/01 05:53:56;;;;;;;;;;;;;;;;;;5133232;27;19931;-76
2021/09/01 05:56:23;;;;;;;;;;;;;;;;;;5133968;28;19930;-76
2021/09/01 05:58:49;;;;;;;;;;;;;;;;;;5133618;28;19947;-76
2021/09/01 06:01:15;;;;;;;;;;;;;;;;;;5133303;28;20402;-76
2021/09/01 06:03:42;;;;;;;;;;;;;;;;;;5133451;28;19923;-76
2021/09/01 06:06:09;;;;;;;;;;;;;;;;;;5133511;28;19924;-76
2021/09/01 06:08:35;;;;;;;;;;;;;;;;;;5133413;28;19934;-76
2021/09/01 06:11:02;;;;;;;;;;;;;;;;;;5133182;28;20021;-76
2021/09/01 06:13:28;;;;;;;;;;;;;;;;;;5133551;28;19924;-76
2021/09/01 06:15:55;;;;;;;;;;;;;;;;;;5133297;28;20274;-76
2021/09/01 06:18:21;;;;;;;;;;;;;;;;;;5133737;28;19958;-76
2021/09/01 06:20:48;;;;;;;;;;;;;;;;;;5133679;28;20288;-76
2021/09/01 06:23:14;;;;;;;;;;;;;;;;;;5133050;28;19927;-76
2021/09/01 06:25:40;;;;;;;;;;;;;;;;;;5133116;28;20382;-76
2021/09/01 06:28:07;;;;;;;;;;;;;;;;;;5132902;28;19937;-76
2021/09/01 06:30:33;;;;;;;;;;;;;;;;;;5133427;28;19924;-76
2021/09/01 06:32:59;;;;;;;;;;;;;;;;;;5132966;28;19924;-76
2021/09/01 06:35:26;;;;;;;;;;;;;;;;;;5133115;28;19928;-76
2021/09/01 06:37:52;;;;;;;;;;;;;;;;;;5133045;28;19923;-76
2021/09/01 06:40:18;;;;;;;;;;;;;;;;;;5133048;28;19923;-76
2021/09/01 06:42:45;;;;;;;;;;;;;;;;;;5133423;28;19924;-76
2021/09/01 06:45:11;;;;;;;;;;;;;;;;;;5133111;28;20297;-76
2021/09/01 06:47:37;;;;;;;;;;;;;;;;;;5133017;28;19923;-75
2021/09/01 06:50:03;;;;;;;;;;;;;;;;;;5132631;28;19929;-76
2021/09/01 06:52:30;;;;;;;;;;;;;;;;;;5134569;27;19923;-76
2021/09/01 06:54:56;;;;;;;;;;;;;;;;;;5136495;27;20300;-76
2021/09/01 06:57:22;;;;;;;;;;;;;;;;;;5136716;27;19930;-76
2021/09/01 06:59:49;;;;;;;;;;;;;;;;;;5136902;27;19931;-76
2021/09/01 07:02:15;;;;;;;;;;;;;;;;;;5136962;27;20304;-76
2021/09/01 07:04:41;;;;;;;;;;;;;;;;;;5136576;27;19931;-76
2021/09/01 07:07:08;;;;;;;;;;;;;;;;;;5136596;27;19954;-76
2021/09/01 07:09:34;;;;;;;;;;;;;;;;;;5136498;27;20378;-76
2021/09/01 07:12:00;;;;;;;;;;;;;;;;;;5136218;27;19930;-76
2021/09/01 07:14:26;;;;;;;;;;;;;;;;;;5136678;27;19927;-76
2021/09/01 07:16:53;;;;;;;;;;;;;;;;;;5136104;27;20300;-76
2021/09/01 07:19:19;;;;;;;;;;;;;;;;;;5136412;27;19923;-76
2021/09/01 07:21:45;;;;;;;;;;;;;;;;;;5136241;27;19923;-76
2021/09/01 07:24:12;;;;;;;;;;;;;;;;;;5136388;27;19929;-76
2021/09/01 07:26:38;;;;;;;;;;;;;;;;;;5136225;27;19930;-76
2021/09/01 07:29:04;;;;;;;;;;;;;;;;;;5136156;27;19923;-76
2021/09/01 07:31:31;;;;;;;;;;;;;;;;;;5136347;27;19924;-76
2021/09/01 07:33:57;;;;;;;;;;;;;;;;;;5136116;27;19924;-76
2021/09/01 07:36:24;;;;;;;;;;;;;;;;;;5138180;27;19946;-76
2021/09/01 07:38:50;;;;;;;;;;;;;;;;;;5135746;27;19937;-76
2021/09/01 07:41:16;;;;;;;;;;;;;;;;;;5136191;27;19923;-76
2021/09/01 07:43:42;;;;;;;;;;;;;;;;;;5136818;27;19946;-76
2021/09/01 07:46:09;;;;;;;;;;;;;;;;;;5135983;27;19924;-76
2021/09/01 07:48:35;;;;;;;;;;;;;;;;;;5136682;27;19927;-75
2021/09/01 07:51:02;;;;;;;;;;;;;;;;;;5136465;27;20393;-75
2021/09/01 07:53:28;;;;;;;;;;;;;;;;;;5135736;27;19929;-75
2021/09/01 07:55:54;;;;;;;;;;;;;;;;;;5135613;27;19924;-75
2021/09/01 07:58:21;;;;;;;;;;;;;;;;;;5135614;27;19923;-76
2021/09/01 08:00:47;;;;;;;;;;;;;;;;;;5135320;27;19933;-76
2021/09/01 08:03:13;;;;;;;;;;;;;;;;;;5135171;27;19924;-74
2021/09/01 08:05:39;;;;;;;;;;;;;;;;;;5134759;27;19923;-75
2021/09/01 08:08:06;;;;;;;;;;;;;;;;;;5135755;27;19923;-75
2021/09/01 08:10:32;;;;;;;;;;;;;;;;;;5135690;27;19924;-75
2021/09/01 08:12:58;;;;;;;;;;;;;;;;;;5135014;27;19923;-75
2021/09/01 08:15:25;;;;;;;;;;;;;;;;;;5135561;27;19930;-75
2021/09/01 08:17:51;;;;;;;;;;;;;;;;;;5134914;27;19923;-75
2021/09/01 08:20:17;;;;;;;;;;;;;;;;;;5135658;27;19935;-77
2021/09/01 08:22:43;;;;;;;;;;;;;;;;;;5135653;27;19924;-77
2021/09/01 08:25:10;;;;;;;;;;;;;;;;;;5134951;27;19927;-77
2021/09/01 08:27:36;;;;;;;;;;;;;;;;;;5135368;27;19930;-77
2021/09/01 08:30:02;;;;;;;;;;;;;;;;;;5134828;27;20293;-77
2021/09/01 08:32:29;;;;;;;;;;;;;;;;;;5135030;27;19931;-77
2021/09/01 08:34:55;;;;;;;;;;;;;;;;;;5134828;27;19924;-77
2021/09/01 08:37:21;;;;;;;;;;;;;;;;;;5134701;27;20300;-77
2021/09/01 08:39:48;;;;;;;;;;;;;;;;;;5135033;27;19927;-77
2021/09/01 08:42:14;;;;;;;;;;;;;;;;;;5134477;27;20372;-77
2021/09/01 08:44:40;;;;;;;;;;;;;;;;;;5134749;27;20305;-77
2021/09/01 08:47:07;;;;;;;;;;;;;;;;;;5134357;27;19924;-77
2021/09/01 08:49:33;;;;;;;;;;;;;;;;;;5134869;27;19938;-77
2021/09/01 08:52:00;;;;;;;;;;;;;;;;;;5134285;27;20369;-77
2021/09/01 08:54:27;;;;;;;;;;;;;;;;;;5134509;27;19923;-78
2021/09/01 08:56:53;;;;;;;;;;;;;;;;;;5134438;27;19924;-77
2021/09/01 08:59:19;;;;;;;;;;;;;;;;;;5134513;27;19923;-77
2021/09/01 09:01:46;;;;;;;;;;;;;;;;;;5136116;27;19924;-76
2021/09/01 09:04:12;;;;;;;;;;;;;;;;;;5138382;27;19923;-76
2021/09/01 09:06:38;;;;;;;;;;;;;;;;;;5134495;27;19927;-75
2021/09/01 09:09:04;;;;;;;;;;;;;;;;;;5134289;27;19978;-77
2021/09/01 09:11:31;;;;;;;;;;;;;;;;;;5136408;27;19923;-75
2021/09/01 09:13:57;;;;;;;;;;;;;;;;;;5135077;27;19923;-77
2021/09/01 09:16:23;;;;;;;;;;;;;;;;;;5134316;27;19945;-75
2021/09/01 09:18:50;;;;;;;;;;;;;;;;;;5133805;27;19923;-77
2021/09/01 09:21:16;;;;;;;;;;;;;;;;;;5133750;27;19923;-76
2021/09/01 09:23:42;;;;;;;;;;;;;;;;;;5134273;27;19929;-77
2021/09/01 09:26:09;;;;;;;;;;;;;;;;;;5133537;27;20296;-77
2021/09/01 09:28:35;;;;;;;;;;;;;;;;;;5133771;27;19932;-77
2021/09/01 09:31:01;;;;;;;;;;;;;;;;;;5133636;27;19930;-77
2021/09/01 09:33:27;;;;;;;;;;;;;;;;;;5134138;27;19931;-75
2021/09/01 09:35:54;;;;;;;;;;;;;;;;;;5133897;27;19923;-74
2021/09/01 09:38:20;;;;;;;;;;;;;;;;;;5133921;27;19924;-74
2021/09/01 09:40:47;;;;;;;;;;;;;;;;;;5133640;27;20282;-75
2021/09/01 09:43:13;;;;;;;;;;;;;;;;;;5133419;27;19924;-77
2021/09/01 09:45:39;;;;;;;;;;;;;;;;;;5133955;27;20020;-75
2021/09/01 09:48:06;;;;;;;;;;;;;;;;;;5133337;27;20297;-75
2021/09/01 09:50:32;;;;;;;;;;;;;;;;;;5133485;27;20396;-75
2021/09/01 09:52:58;;;;;;;;;;;;;;;;;;5133943;27;19924;-74
2021/09/01 09:55:25;;;;;;;;;;;;;;;;;;5133533;27;20297;-75
2021/09/01 09:57:51;;;;;;;;;;;;;;;;;;5133430;27;19993;-76
2021/09/01 10:00:17;;;;;;;;;;;;;;;;;;5133360;28;19923;-76
2021/09/01 10:02:43;;;;;;;;;;;;;;;;;;5133464;28;19924;-76
2021/09/01 10:05:10;;;;;;;;;;;;;;;;;;5133456;28;19934;-76
2021/09/01 10:07:36;;;;;;;;;;;;;;;;;;5133681;28;20293;-75
2021/09/01 10:10:02;;;;;;;;;;;;;;;;;;5133419;28;19930;-76
2021/09/01 10:12:29;;;;;;;;;;;;;;;;;;5133521;28;20352;-76
2021/09/01 10:14:55;;;;;;;;;;;;;;;;;;5133032;28;19923;-76
2021/09/01 10:17:21;;;;;;;;;;;;;;;;;;5133632;28;19923;-75
2021/09/01 10:19:48;;;;;;;;;;;;;;;;;;5133709;28;19927;-76
2021/09/01 10:22:14;;;;;;;;;;;;;;;;;;5133044;28;19924;-76
2021/09/01 10:24:40;;;;;;;;;;;;;;;;;;5133487;28;19924;-76
2021/09/01 10:27:07;;;;;;;;;;;;;;;;;;5133986;27;19923;-76
2021/09/01 10:29:33;;;;;;;;;;;;;;;;;;5137443;27;20395;-76
2021/09/01 10:31:59;;;;;;;;;;;;;;;;;;5137201;27;19934;-76
2021/09/01 10:34:25;;;;;;;;;;;;;;;;;;5137690;27;19923;-76
2021/09/01 10:36:52;;;;;;;;;;;;;;;;;;5136877;27;20381;-75
2021/09/01 10:39:18;;;;;;;;;;;;;;;;;;5137182;27;19924;-76
2021/09/01 10:41:45;;;;;;;;;;;;;;;;;;5137371;27;19931;-76
2021/09/01 10:44:11;;;;;;;;;;;;;;;;;;5137038;27;19923;-76
2021/09/01 10:46:37;;;;;;;;;;;;;;;;;;5137315;27;19923;-77
2021/09/01 10:49:04;;;;;;;;;;;;;;;;;;5136706;27;19924;-77
2021/09/01 10:51:30;;;;;;;;;;;;;;;;;;5136825;27;19923;-76
2021/09/01 10:53:56;;;;;;;;;;;;;;;;;;5136966;27;19946;-76
2021/09/01 10:56:22;;;;;;;;;;;;;;;;;;5136807;27;19923;-76
2021/09/01 10:58:49;;;;;;;;;;;;;;;;;;5136605;27;19923;-76
2021/09/01 11:01:16;;;;;;;;;;;;;;;;;;5136949;27;19982;-76
2021/09/01 11:03:42;;;;;;;;;;;;;;;;;;5136731;27;19924;-76
2021/09/01 11:06:08;;;;;;;;;;;;;;;;;;5136598;27;19923;-76
2021/09/01 11:08:34;;;;;;;;;;;;;;;;;;5136624;27;20393;-76
2021/09/01 11:11:01;;;;;;;;;;;;;;;;;;5136209;27;19930;-76
2021/09/01 11:13:27;;;;;;;;;;;;;;;;;;5136781;27;19923;-76
2021/09/01 11:15:53;;;;;;;;;;;;;;;;;;5136309;27;20374;-76
2021/09/01 11:18:20;;;;;;;;;;;;;;;;;;5136317;27;19934;-76
2021/09/01 11:20:46;;;;;;;;;;;;;;;;;;5136485;27;19931;-76
2021/09/01 11:23:12;;;;;;;;;;;;;;;;;;5135875;27;20392;-76
2021/09/01 11:25:39;;;;;;;;;;;;;;;;;;5136484;27;19931;-76
2021/09/01 11:28:05;;;;;;;;;;;;;;;;;;5136185;27;19924;-76
2021/09/01 11:30:31;;;;;;;;;;;;;;;;;;5136117;27;20271;-76
2021/09/01 11:32:57;;;;;;;;;;;;;;;;;;5135806;27;19930;-76
2021/09/01 11:35:25;;;;;;;;;;;;;;;;;;5136290;27;19930;-76
2021/09/01 11:37:52;;;;;;;;;;;;;;;;;;5135477;27;20363;-76
2021/09/01 11:40:18;;;;;;;;;;;;;;;;;;5136447;27;19931;-76
2021/09/01 11:42:44;;;;;;;;;;;;;;;;;;5136246;27;19930;-76
2021/09/01 11:45:11;;;;;;;;;;;;;;;;;;5135560;27;19923;-76
2021/09/01 11:47:37;;;;;;;;;;;;;;;;;;5135747;27;19924;-76
2021/09/01 11:50:03;;;;;;;;;;;;;;;;;;5136196;27;19931;-77
2021/09/01 11:52:29;;;;;;;;;;;;;;;;;;5136139;27;20413;-77
2021/09/01 11:54:56;;;;;;;;;;;;;;;;;;5135304;27;19927;-76
2021/09/01 11:57:22;;;;;;;;;;;;;;;;;;5135865;27;19924;-77
2021/09/01 11:59:48;;;;;;;;;;;;;;;;;;5135582;27;19923;-77
2021/09/01 12:02:15;;;;;;;;;;;;;;;;;;5135523;27;19923;-77
2021/09/01 12:04:41;;;;;;;;;;;;;;;;;;5135689;27;19924;-77
2021/09/01 12:07:07;;;;;;;;;;;;;;;;;;5135209;27;20295;-75
2021/09/01 12:09:34;;;;;;;;;;;;;;;;;;5135393;27;19924;-77
2021/09/01 12:12:00;;;;;;;;;;;;;;;;;;5135297;27;19927;-77
2021/09/01 12:14:26;;;;;;;;;;;;;;;;;;5135309;27;20368;-77
2021/09/01 12:16:52;;;;;;;;;;;;;;;;;;5135105;27;19930;-77
2021/09/01 12:19:20;;;;;;;;;;;;;;;;;;5135589;27;19924;-77
2021/09/01 12:21:47;;;;;;;;;;;;;;;;;;5135085;27;19927;-77
2021/09/01 12:24:13;;;;;;;;;;;;;;;;;;5135032;27;19928;-77
2021/09/01 12:26:39;;;;;;;;;;;;;;;;;;5134962;27;19923;-77
2021/09/01 12:29:05;;;;;;;;;;;;;;;;;;5134753;27;19930;-77
2021/09/01 12:31:32;;;;;;;;;;;;;;;;;;5135254;27;19930;-77
2021/09/01 12:33:58;;;;;;;;;;;;;;;;;;5136170;27;19928;-77
2021/09/01 12:36:27;;;;;;;;;;;;;;;;;;5134843;27;19930;-77
2021/09/01 12:38:53;;;;;;;;;;;;;;;;;;5134881;27;20023;-77
2021/09/01 12:41:19;;;;;;;;;;;;;;;;;;5134603;27;20281;-78
2021/09/01 12:43:46;;;;;;;;;;;;;;;;;;5134755;27;19930;-75
2021/09/01 12:46:12;;;;;;;;;;;;;;;;;;5134367;27;20339;-75
2021/09/01 12:48:41;;;;;;;;;;;;;;;;;;5134646;27;19924;-74
2021/09/01 12:51:08;;;;;;;;;;;;;;;;;;5133712;27;19924;-75
2021/09/01 12:53:35;;;;;;;;;;;;;;;;;;5134797;27;19946;-74
2021/09/01 12:56:02;;;;;;;;;;;;;;;;;;5134781;27;19995;-78
2021/09/01 12:58:28;;;;;;;;;;;;;;;;;;5134968;27;19930;-76
2021/09/01 13:00:55;;;;;;;;;;;;;;;;;;5134536;27;20258;-76
2021/09/01 13:03:21;;;;;;;;;;;;;;;;;;5134230;27;19927;-76
2021/09/01 13:05:47;;;;;;;;;;;;;;;;;;5134255;27;19924;-76
2021/09/01 13:08:13;;;;;;;;;;;;;;;;;;5134282;27;19923;-75
2021/09/01 13:10:40;;;;;;;;;;;;;;;;;;5134121;27;20373;-76
2021/09/01 13:13:06;;;;;;;;;;;;;;;;;;5133725;27;19949;-75
2021/09/01 13:15:32;;;;;;;;;;;;;;;;;;5134416;27;19929;-75
2021/09/01 13:17:59;;;;;;;;;;;;;;;;;;5133916;27;20297;-76
2021/09/01 13:20:25;;;;;;;;;;;;;;;;;;5134145;27;19930;-77
2021/09/01 13:22:51;;;;;;;;;;;;;;;;;;5133671;27;19927;-77
2021/09/01 13:25:18;;;;;;;;;;;;;;;;;;5134280;27;19930;-77
2021/09/01 13:27:44;;;;;;;;;;;;;;;;;;5134061;27;19923;-76
2021/09/01 13:30:11;;;;;;;;;;;;;;;;;;5133853;27;19928;-73
2021/09/01 13:32:38;;;;;;;;;;;;;;;;;;5134015;27;20388;-73
2021/09/01 13:35:04;;;;;;;;;;;;;;;;;;5133630;27;19923;-73
2021/09/01 13:37:30;;;;;;;;;;;;;;;;;;5134101;27;19930;-75
2021/09/01 13:39:56;;;;;;;;;;;;;;;;;;5134192;27;19946;-75
2021/09/01 13:42:23;;;;;;;;;;;;;;;;;;5134228;27;19953;-74
2021/09/01 13:44:49;;;;;;;;;;;;;;;;;;5134202;27;19923;-74
2021/09/01 13:47:15;;;;;;;;;;;;;;;;;;5133719;27;20377;-75
2021/09/01 13:49:42;;;;;;;;;;;;;;;;;;5133585;27;19934;-76
2021/09/01 13:52:08;;;;;;;;;;;;;;;;;;5133179;28;19923;-76
2021/09/01 13:54:34;;;;;;;;;;;;;;;;;;5133870;27;19930;-77
2021/09/01 13:57:01;;;;;;;;;;;;;;;;;;5133108;27;19923;-76
2021/09/01 13:59:28;;;;;;;;;;;;;;;;;;5133739;27;19930;-77
2021/09/01 14:01:54;;;;;;;;;;;;;;;;;;5132741;27;19973;-75
2021/09/01 14:04:20;;;;;;;;;;;;;;;;;;5133155;28;20365;-74
2021/09/01 14:06:47;;;;;;;;;;;;;;;;;;5133330;28;19931;-72
2021/09/01 14:09:13;;;;;;;;;;;;;;;;;;5133515;28;19924;-72
2021/09/01 14:11:43;;;;;;;;;;;;;;;;;;5133525;28;19930;-73
2021/09/01 14:14:09;;;;;;;;;;;;;;;;;;5127645;28;19924;-72
2021/09/01 14:16:35;;;;;;;;;;;;;;;;;;5101239;28;20400;-73
2021/09/01 14:19:02;;;;;;;;;;;;;;;;;;5101592;28;19927;-72
2021/09/01 14:21:28;;;;;;;;;;;;;;;;;;5112743;28;19924;-72
2021/09/01 14:23:54;;;;;;;;;;;;;;;;;;5098107;28;20044;-72
2021/09/01 14:26:21;;;;;;;;;;;;;;;;;;5092302;28;19931;-72
2021/09/01 14:28:47;;;;;;;;;;;;;;;;;;5092521;28;20286;-71
2021/09/01 14:31:13;;;;;;;;;;;;;;;;;;5096085;28;19934;-71
2021/09/01 14:33:40;;;;;;;;;;;;;;;;;;5112885;28;19930;-72
2021/09/01 14:36:06;;;;;;;;;;;;;;;;;;5112732;28;19924;-72
2021/09/01 14:38:32;;;;;;;;;;;;;;;;;;5112551;28;19931;-72
2021/09/01 14:40:59;;;;;;;;;;;;;;;;;;5112566;28;19924;-71
2021/09/01 14:43:25;;;;;;;;;;;;;;;;;;5112715;28;19928;-72
2021/09/01 14:45:52;;;;;;;;;;;;;;;;;;5112201;28;20413;-72
2021/09/01 14:48:18;;;;;;;;;;;;;;;;;;5108115;28;19924;-72
2021/09/01 14:50:44;;;;;;;;;;;;;;;;;;5092417;28;19924;-72
2021/09/01 14:53:11;;;;;;;;;;;;;;;;;;5091849;28;20297;-71
2021/09/01 14:55:38;;;;;;;;;;;;;;;;;;5091872;28;20376;-71
2021/09/01 14:58:04;;;;;;;;;;;;;;;;;;5091728;28;19924;-72
2021/09/01 15:00:30;;;;;;;;;;;;;;;;;;5092359;28;19924;-71
2021/09/01 15:02:56;;;;;;;;;;;;;;;;;;5091554;28;20371;-71
2021/09/01 15:05:23;;;;;;;;;;;;;;;;;;5092121;28;19924;-72
2021/09/01 15:07:51;;;;;;;;;;;;;;;;;;5092158;28;19945;-72
2021/09/01 15:10:17;;;;;;;;;;;;;;;;;;5091976;28;19928;-72
2021/09/01 15:12:44;;;;;;;;;;;;;;;;;;5092072;28;19932;-72
2021/09/01 15:15:10;;;;;;;;;;;;;;;;;;5095392;28;20039;-72
2021/09/01 15:17:37;;;;;;;;;;;;;;;;;;5095395;28;20409;-72
2021/09/01 15:20:03;;;;;;;;;;;;;;;;;;5095181;28;20030;-72
2021/09/01 15:22:29;;;;;;;;;;;;;;;;;;5099790;28;19923;-72
2021/09/01 15:24:55;;;;;;;;;;;;;;;;;;5126926;27;20393;-72
2021/09/01 15:27:22;;;;;;;;;;;;;;;;;;5120988;27;19928;-71
2021/09/01 15:29:48;;;;;;;;;;;;;;;;;;5136378;27;19946;-71
2021/09/01 15:32:14;;;;;;;;;;;;;;;;;;5125157;27;19930;-71
2021/09/01 15:34:41;;;;;;;;;;;;;;;;;;5115608;28;19924;-72
2021/09/01 15:37:07;;;;;;;;;;;;;;;;;;5115546;28;19924;-72
2021/09/01 15:39:33;;;;;;;;;;;;;;;;;;5115604;27;19924;-72
2021/09/01 15:41:59;;;;;;;;;;;;;;;;;;5135567;27;19923;-73
2021/09/01 15:44:26;;;;;;;;;;;;;;;;;;5136094;27;19924;-70
2021/09/01 15:46:52;;;;;;;;;;;;;;;;;;5135606;27;20308;-70
2021/09/01 15:49:18;;;;;;;;;;;;;;;;;;5135771;27;19930;-71
2021/09/01 15:51:45;;;;;;;;;;;;;;;;;;5136188;27;19929;-70
2021/09/01 15:54:11;;;;;;;;;;;;;;;;;;5135716;27;19998;-71
2021/09/01 15:56:37;;;;;;;;;;;;;;;;;;5135276;27;19923;-71
2021/09/01 15:59:04;;;;;;;;;;;;;;;;;;5114843;28;19974;-71
2021/09/01 16:01:30;;;;;;;;;;;;;;;;;;5115177;28;19931;-71
2021/09/01 16:03:56;;;;;;;;;;;;;;;;;;5115089;28;19946;-71
2021/09/01 16:06:23;;;;;;;;;;;;;;;;;;5114901;28;19927;-71
2021/09/01 16:08:49;;;;;;;;;;;;;;;;;;5115020;28;19924;-71
2021/09/01 16:11:15;;;;;;;;;;;;;;;;;;5115115;28;19924;-71
2021/09/01 16:13:41;;;;;;;;;;;;;;;;;;5114819;28;20289;-71
2021/09/01 16:16:08;;;;;;;;;;;;;;;;;;5114344;28;19930;-71
2021/09/01 16:18:34;;;;;;;;;;;;;;;;;;5114840;28;19930;-71
2021/09/01 16:21:00;;;;;;;;;;;;;;;;;;5114374;28;19938;-71
2021/09/01 16:23:27;;;;;;;;;;;;;;;;;;5101474;28;19924;-71
2021/09/01 16:25:53;;;;;;;;;;;;;;;;;;5093418;28;19935;-71
2021/09/01 16:28:19;;;;;;;;;;;;;;;;;;5094506;28;19924;-70
2021/09/01 16:30:45;;;;;;;;;;;;;;;;;;5095116;28;19930;-71
2021/09/01 16:33:12;;;;;;;;;;;;;;;;;;5134969;27;19945;-71
2021/09/01 16:35:38;;;;;;;;;;;;;;;;;;5134886;27;19930;-71
2021/09/01 16:38:08;;;;;;;;;;;;;;;;;;5134612;27;19923;-71